createdAt,value
2016-03-21T00:00:22.176Z,64.72
2016-03-21T00:01:22.553Z,64.81
2016-03-21T00:02:22.056Z,65.1
2016-03-21T00:03:22.106Z,65.29
2016-03-21T00:04:22.015Z,64.9
2016-03-21T00:05:21.986Z,64.72
2016-03-21T00:06:21.973Z,65.86
2016-03-21T00:07:21.945Z,65.67
2016-03-21T00:08:21.885Z,65.67
2016-03-21T00:09:21.966Z,64.81
2016-03-21T00:10:22.266Z,64.81
2016-03-21T00:11:22.283Z,64.72
2016-03-21T00:12:21.802Z,65.1
2016-03-21T00:13:21.914Z,65.1
2016-03-21T00:14:21.854Z,65.67
2016-03-21T00:15:22.107Z,65.73
2016-03-21T00:16:21.704Z,65.38
2016-03-21T00:17:21.706Z,64.78
2016-03-21T00:18:21.662Z,64.69
2016-03-21T00:19:21.743Z,64.87
2016-03-21T00:20:21.621Z,65.16
2016-03-21T00:21:21.796Z,65.16
2016-03-21T00:22:35.360Z,65.45
2016-03-21T00:23:22.113Z,65.45
2016-03-21T00:24:21.522Z,66.02
2016-03-21T00:25:21.493Z,66.39
2016-03-21T00:26:21.527Z,65.64
2016-03-21T00:27:21.437Z,65.92
2016-03-21T00:28:21.423Z,66.11
2016-03-21T00:29:21.473Z,66.2
2016-03-21T00:30:21.366Z,66.68
2016-03-21T00:31:21.322Z,66.59
2016-03-21T00:32:21.325Z,66.3
2016-03-21T00:33:21.390Z,66.2
2016-03-21T00:34:21.252Z,66.39
2016-03-21T00:35:21.239Z,66.2
2016-03-21T00:36:21.194Z,66.39
2016-03-21T00:37:21.244Z,66.87
2016-03-21T00:38:21.169Z,66.39
2016-03-21T00:39:21.297Z,66.02
2016-03-21T00:40:21.112Z,66.02
2016-03-21T00:41:21.068Z,66.2
2016-03-21T00:42:21.086Z,66.2
2016-03-21T00:43:21.182Z,65.92
2016-03-21T00:44:20.997Z,66.2
2016-03-21T00:45:21.032Z,66.39
2016-03-21T00:46:20.924Z,66.02
2016-03-21T00:47:20.959Z,65.92
2016-03-21T00:48:21.243Z,65.92
2016-03-21T00:49:20.918Z,65.64
2016-03-21T00:50:20.873Z,65.64
2016-03-21T00:51:20.860Z,65.73
2016-03-21T00:52:21.518Z,66.2
2016-03-21T00:53:21.115Z,66.11
2016-03-21T00:54:20.790Z,66.11
2016-03-21T00:55:20.762Z,65.73
2016-03-21T00:56:20.968Z,65.83
2016-03-21T00:57:20.673Z,66.11
2016-03-21T00:58:20.692Z,66.02
2016-03-21T00:59:20.663Z,65.54
2016-03-21T01:00:20.697Z,65.73
2016-03-21T01:01:20.575Z,65.92
2016-03-21T01:02:21.202Z,65.92
2016-03-21T01:03:21.298Z,66.11
2016-03-21T01:04:21.020Z,66.2
2016-03-21T01:05:20.461Z,66.11
2016-03-21T01:06:20.463Z,66.02
2016-03-21T01:07:20.419Z,65.92
2016-03-21T01:08:20.234Z,66.11
2016-03-21T01:09:20.408Z,65.92
2016-03-21T01:10:20.364Z,66.11
2016-03-21T01:11:20.336Z,66.11
2016-03-21T01:12:20.651Z,66.3
2016-03-21T01:13:20.325Z,66.02
2016-03-21T01:14:20.219Z,66.2
2016-03-21T01:15:20.252Z,66.39
2016-03-21T01:16:20.833Z,66.39
2016-03-21T01:17:20.446Z,66.59
2016-03-21T01:18:20.136Z,66.78
2016-03-21T01:19:20.123Z,66.27
2016-03-21T01:20:20.126Z,66.68
2016-03-21T01:21:20.644Z,66.65
2016-03-21T01:22:20.507Z,66.36
2016-03-21T01:23:20.321Z,66.65
2016-03-21T01:24:19.995Z,66.55
2016-03-21T01:25:19.952Z,66.65
2016-03-21T01:26:20.079Z,66.55
2016-03-21T01:27:19.910Z,66.55
2016-03-21T01:28:19.866Z,66.46
2016-03-21T01:29:19.868Z,66.27
2016-03-21T01:30:20.168Z,66.74
2016-03-21T01:31:19.812Z,66.55
2016-03-21T01:32:19.784Z,66.17
2016-03-21T01:33:20.114Z,66.84
2016-03-21T01:34:19.711Z,66.55
2016-03-21T01:35:19.776Z,66.55
2016-03-21T01:36:19.669Z,66.17
2016-03-21T01:37:19.656Z,66.27
2016-03-21T01:38:20.050Z,66.65
2016-03-21T01:39:20.067Z,66.08
2016-03-21T01:40:19.586Z,66.55
2016-03-21T01:41:19.620Z,66.46
2016-03-21T01:42:19.528Z,66.87
2016-03-21T01:43:19.500Z,66.08
2016-03-21T01:44:19.488Z,66.46
2016-03-21T01:45:19.474Z,66.46
2016-03-21T01:46:19.430Z,66.59
2016-03-21T01:47:19.480Z,66.55
2016-03-21T01:48:19.357Z,66.46
2016-03-21T01:49:19.344Z,66.46
2016-03-21T01:50:19.316Z,66.46
2016-03-21T01:51:19.303Z,66.3
2016-03-21T01:52:19.275Z,66.46
2016-03-21T01:53:19.231Z,66.65
2016-03-21T01:54:19.233Z,66.17
2016-03-21T01:55:19.174Z,66.65
2016-03-21T01:56:19.192Z,66.84
2016-03-21T01:57:19.132Z,66.27
2016-03-21T01:58:19.119Z,66.68
2016-03-21T01:59:19.091Z,66.27
2016-03-21T02:00:19.156Z,66.74
2016-03-21T02:01:19.611Z,66.84
2016-03-21T02:02:19.083Z,66.74
2016-03-21T02:03:19.320Z,66.65
2016-03-21T02:04:18.979Z,66.55
2016-03-21T02:05:19.012Z,67.13
2016-03-21T02:06:18.890Z,67.13
2016-03-21T02:07:18.878Z,67.03
2016-03-21T02:08:18.864Z,67.03
2016-03-21T02:09:19.306Z,66.74
2016-03-21T02:10:18.979Z,67.13
2016-03-21T02:11:18.763Z,67.13
2016-03-21T02:12:18.766Z,66.94
2016-03-21T02:13:18.769Z,66.74
2016-03-21T02:14:18.725Z,67.03
2016-03-21T02:15:18.665Z,66.94
2016-03-21T02:16:18.715Z,67.03
2016-03-21T02:17:18.608Z,67.03
2016-03-21T02:18:18.594Z,66.84
2016-03-21T02:19:18.583Z,66.65
2016-03-21T02:20:19.225Z,67.22
2016-03-21T02:21:18.525Z,67.03
2016-03-21T02:22:18.480Z,66.84
2016-03-21T02:23:18.468Z,66.94
2016-03-21T02:24:18.486Z,67.22
2016-03-21T02:25:19.176Z,66.87
2016-03-21T02:26:18.382Z,67.13
2016-03-21T02:27:18.354Z,66.94
2016-03-21T02:28:18.356Z,66.55
2016-03-21T02:29:19.093Z,66.97
2016-03-21T02:30:18.314Z,67.6
2016-03-21T02:31:18.318Z,67.79
2016-03-21T02:32:18.257Z,67.69
2016-03-21T02:33:18.290Z,67.03
2016-03-21T02:34:18.293Z,67.22
2016-03-21T02:35:18.812Z,66.94
2016-03-21T02:36:18.159Z,66.84
2016-03-21T02:37:18.084Z,67.32
2016-03-21T02:38:18.071Z,67.6
2016-03-21T02:39:18.526Z,67.41
2016-03-21T02:40:18.028Z,67.6
2016-03-21T02:41:18.017Z,67.41
2016-03-21T02:42:17.972Z,67.41
2016-03-21T02:43:17.975Z,67.88
2016-03-21T02:44:17.930Z,67.6
2016-03-21T02:45:18.105Z,67.6
2016-03-21T02:46:18.389Z,67.5
2016-03-21T02:47:17.860Z,67.5
2016-03-21T02:48:18.707Z,67.5
2016-03-21T02:49:17.803Z,67.5
2016-03-21T02:50:17.822Z,67.5
2016-03-21T02:51:17.761Z,67.6
2016-03-21T02:52:17.733Z,67.6
2016-03-21T02:53:17.986Z,67.88
2016-03-21T02:54:17.691Z,67.41
2016-03-21T02:55:17.632Z,67.32
2016-03-21T02:56:17.618Z,67.5
2016-03-21T02:57:17.591Z,67.5
2016-03-21T02:58:17.562Z,67.79
2016-03-21T02:59:17.533Z,67.22
2016-03-21T03:00:17.505Z,66.94
2016-03-21T03:01:17.476Z,66.94
2016-03-21T03:02:17.448Z,66.65
2016-03-21T03:03:17.451Z,66.94
2016-03-21T03:04:17.407Z,66.94
2016-03-21T03:05:17.409Z,66.94
2016-03-21T03:06:18.442Z,66.74
2016-03-21T03:07:17.382Z,67.22
2016-03-21T03:08:17.494Z,66.55
2016-03-21T03:09:17.277Z,66.74
2016-03-21T03:10:17.719Z,66.65
2016-03-21T03:11:17.236Z,66.84
2016-03-21T03:12:17.208Z,66.84
2016-03-21T03:13:17.179Z,67.07
2016-03-21T03:14:17.166Z,67.13
2016-03-21T03:15:17.216Z,67.13
2016-03-21T03:16:17.094Z,66.84
2016-03-21T03:17:17.080Z,66.94
2016-03-21T03:18:17.067Z,67.16
2016-03-21T03:19:17.321Z,66.84
2016-03-21T03:20:17.010Z,66.65
2016-03-21T03:21:17.123Z,67.13
2016-03-21T03:22:16.938Z,66.94
2016-03-21T03:23:16.909Z,66.65
2016-03-21T03:24:16.896Z,66.94
2016-03-21T03:25:16.867Z,66.74
2016-03-21T03:26:16.824Z,67.03
2016-03-21T03:27:16.810Z,67.5
2016-03-21T03:28:16.797Z,67.6
2016-03-21T03:29:16.769Z,67.5
2016-03-21T03:30:16.725Z,67.5
2016-03-21T03:31:16.790Z,67.69
2016-03-21T03:32:16.684Z,67.5
2016-03-21T03:33:16.687Z,67.5
2016-03-21T03:34:16.658Z,67.69
2016-03-21T03:35:16.645Z,67.69
2016-03-21T03:36:16.584Z,67.69
2016-03-21T03:37:16.556Z,67.69
2016-03-21T03:38:16.528Z,67.41
2016-03-21T03:39:16.499Z,67.32
2016-03-21T03:40:16.486Z,67.22
2016-03-21T03:41:16.457Z,67.6
2016-03-21T03:42:16.445Z,67.32
2016-03-21T03:43:16.447Z,67.69
2016-03-21T03:44:16.388Z,67.41
2016-03-21T03:45:16.375Z,67.69
2016-03-21T03:46:16.315Z,67.5
2016-03-21T03:47:16.364Z,67.03
2016-03-21T03:48:16.274Z,66.94
2016-03-21T03:49:16.245Z,67.13
2016-03-21T03:50:16.076Z,67.41
2016-03-21T03:51:16.203Z,67.6
2016-03-21T03:52:16.159Z,67.41
2016-03-21T03:53:16.130Z,67.41
2016-03-21T03:54:16.132Z,67.41
2016-03-21T03:55:16.136Z,67.5
2016-03-21T03:56:16.076Z,67.22
2016-03-21T03:57:16.079Z,67.5
2016-03-21T03:58:16.018Z,67.69
2016-03-21T03:59:16.021Z,67.6
2016-03-21T04:00:15.165Z,67.69
2016-03-21T04:01:15.948Z,67.98
2016-03-21T04:02:16.295Z,67.5
2016-03-21T04:03:15.954Z,67.32
2016-03-21T04:04:15.879Z,67.41
2016-03-21T04:05:16.334Z,67.5
2016-03-21T04:06:15.837Z,67.5
2016-03-21T04:07:15.856Z,67.5
2016-03-21T04:08:15.764Z,67.69
2016-03-21T04:09:15.830Z,67.98
2016-03-21T04:10:16.644Z,68.07
2016-03-21T04:11:15.820Z,67.88
2016-03-21T04:12:15.666Z,67.98
2016-03-21T04:13:16.153Z,68.07
2016-03-21T04:14:15.608Z,67.69
2016-03-21T04:15:15.939Z,67.22
2016-03-21T04:16:15.567Z,67.41
2016-03-21T04:17:16.179Z,67.41
2016-03-21T04:18:15.511Z,67.88
2016-03-21T04:19:16.669Z,67.5
2016-03-21T04:20:15.546Z,67.69
2016-03-21T04:21:15.471Z,67.5
2016-03-21T04:22:15.412Z,67.5
2016-03-21T04:23:15.602Z,67.6
2016-03-21T04:24:15.448Z,67.5
2016-03-21T04:25:15.373Z,67.41
2016-03-21T04:26:15.751Z,67.32
2016-03-21T04:27:15.268Z,67.69
2016-03-21T04:28:15.240Z,67.41
2016-03-21T04:29:15.399Z,67.69
2016-03-21T04:30:15.401Z,67.5
2016-03-21T04:31:16.107Z,67.5
2016-03-21T04:32:15.203Z,67.5
2016-03-21T04:33:16.348Z,67.5
2016-03-21T04:34:15.490Z,67.5
2016-03-21T04:35:15.072Z,67.79
2016-03-21T04:36:15.042Z,68.07
2016-03-21T04:37:15.061Z,67.79
2016-03-21T04:38:15.142Z,67.69
2016-03-21T04:39:15.253Z,67.5
2016-03-21T04:40:14.961Z,67.98
2016-03-21T04:41:14.947Z,67.22
2016-03-21T04:42:14.887Z,67.5
2016-03-21T04:43:14.874Z,67.5
2016-03-21T04:44:14.908Z,67.22
2016-03-21T04:45:14.849Z,67.22
2016-03-21T04:46:14.897Z,67.32
2016-03-21T04:47:14.885Z,67.69
2016-03-21T04:48:14.747Z,67.6
2016-03-21T04:49:14.735Z,67.41
2016-03-21T04:50:14.721Z,67.32
2016-03-21T04:51:14.661Z,67.79
2016-03-21T04:52:14.633Z,67.79
2016-03-21T04:53:14.651Z,67.79
2016-03-21T04:54:14.591Z,67.79
2016-03-21T04:55:14.562Z,66.84
2016-03-21T04:56:14.549Z,67.22
2016-03-21T04:57:14.506Z,67.07
2016-03-21T04:58:14.492Z,66.78
2016-03-21T04:59:14.448Z,66.94
2016-03-21T05:00:14.435Z,66.74
2016-03-21T05:01:14.501Z,66.55
2016-03-21T05:02:14.440Z,66.65
2016-03-21T05:03:14.351Z,66.84
2016-03-21T05:04:14.337Z,66.97
2016-03-21T05:05:14.323Z,66.87
2016-03-21T05:06:14.296Z,67.07
2016-03-21T05:07:14.267Z,66.97
2016-03-21T05:08:14.254Z,66.87
2016-03-21T05:09:14.194Z,66.97
2016-03-21T05:10:14.166Z,66.49
2016-03-21T05:11:14.153Z,67.07
2016-03-21T05:12:14.125Z,67.25
2016-03-21T05:13:13.330Z,66.97
2016-03-21T05:14:14.083Z,67.16
2016-03-21T05:15:14.054Z,66.97
2016-03-21T05:16:14.025Z,66.49
2016-03-21T05:17:13.996Z,66.59
2016-03-21T05:18:14.672Z,66.87
2016-03-21T05:19:13.971Z,66.49
2016-03-21T05:20:13.926Z,66.68
2016-03-21T05:21:13.898Z,66.68
2016-03-21T05:22:13.885Z,66.3
2016-03-21T05:23:13.997Z,66.68
2016-03-21T05:24:13.859Z,66.3
2016-03-21T05:25:13.800Z,66.78
2016-03-21T05:26:13.771Z,66.2
2016-03-21T05:27:13.757Z,66.49
2016-03-21T05:28:13.729Z,66.78
2016-03-21T05:29:13.795Z,66.49
2016-03-21T05:30:13.673Z,66.3
2016-03-21T05:31:13.643Z,66.59
2016-03-21T05:32:13.615Z,66.68
2016-03-21T05:33:13.587Z,66.97
2016-03-21T05:34:13.590Z,66.59
2016-03-21T05:35:13.545Z,66.49
2016-03-21T05:36:13.517Z,66.59
2016-03-21T05:37:13.504Z,66.78
2016-03-21T05:38:13.553Z,66.68
2016-03-21T05:39:13.462Z,66.59
2016-03-21T05:40:13.434Z,66.59
2016-03-21T05:41:13.452Z,67.16
2016-03-21T05:42:13.377Z,66.78
2016-03-21T05:43:13.410Z,66.68
2016-03-21T05:44:13.336Z,66.97
2016-03-21T05:45:13.275Z,67.16
2016-03-21T05:46:13.247Z,66.97
2016-03-21T05:47:13.249Z,66.49
2016-03-21T05:48:13.190Z,67.07
2016-03-21T05:49:13.192Z,67.07
2016-03-21T05:50:13.179Z,66.78
2016-03-21T05:51:13.183Z,66.97
2016-03-21T05:52:13.091Z,66.59
2016-03-21T05:53:13.078Z,66.87
2016-03-21T05:54:13.049Z,66.59
2016-03-21T05:55:13.021Z,66.59
2016-03-21T05:56:13.008Z,66.68
2016-03-21T05:57:12.979Z,67.07
2016-03-21T05:58:12.951Z,66.68
2016-03-21T05:59:12.954Z,67.07
2016-03-21T06:00:12.893Z,66.97
2016-03-21T06:01:12.896Z,67.16
2016-03-21T06:02:12.867Z,67.25
2016-03-21T06:03:12.902Z,67.07
2016-03-21T06:04:12.795Z,67.16
2016-03-21T06:05:12.782Z,67.25
2016-03-21T06:06:12.737Z,66.97
2016-03-21T06:07:12.725Z,66.68
2016-03-21T06:08:12.743Z,66.78
2016-03-21T06:09:12.667Z,67.07
2016-03-21T06:10:12.640Z,66.59
2016-03-21T06:11:12.611Z,66.87
2016-03-21T06:12:12.879Z,66.39
2016-03-21T06:13:12.569Z,66.3
2016-03-21T06:14:12.603Z,66.49
2016-03-21T06:15:12.591Z,66.49
2016-03-21T06:16:12.483Z,66.68
2016-03-21T06:17:12.502Z,66.68
2016-03-21T06:18:12.427Z,66.11
2016-03-21T06:19:12.413Z,66.49
2016-03-21T06:20:12.479Z,66.97
2016-03-21T06:21:12.372Z,66.49
2016-03-21T06:22:12.500Z,66.02
2016-03-21T06:23:12.346Z,65.92
2016-03-21T06:24:12.302Z,66.02
2016-03-21T06:25:12.289Z,65.92
2016-03-21T06:26:12.246Z,66.11
2016-03-21T06:27:12.216Z,66.2
2016-03-21T06:28:12.187Z,66.2
2016-03-21T06:29:12.269Z,66.02
2016-03-21T06:30:12.146Z,66.11
2016-03-21T06:31:12.087Z,66.3
2016-03-21T06:32:12.090Z,66.02
2016-03-21T06:33:12.092Z,66.11
2016-03-21T06:34:12.017Z,66.11
2016-03-21T06:35:12.050Z,66.2
2016-03-21T06:36:11.990Z,65.83
2016-03-21T06:37:11.962Z,65.73
2016-03-21T06:38:11.934Z,66.2
2016-03-21T06:39:11.889Z,66.2
2016-03-21T06:40:11.876Z,66.3
2016-03-21T06:41:11.895Z,66.2
2016-03-21T06:42:11.819Z,66.3
2016-03-21T06:43:11.822Z,66.39
2016-03-21T06:44:25.590Z,66.3
2016-03-21T06:45:11.749Z,67.07
2016-03-21T06:46:11.736Z,66.39
2016-03-21T06:47:11.692Z,66.2
2016-03-21T06:48:11.789Z,66.3
2016-03-21T06:49:11.682Z,66.05
2016-03-21T06:50:11.669Z,66.24
2016-03-21T06:51:11.703Z,66.53
2016-03-21T06:52:11.581Z,66.68
2016-03-21T06:53:11.552Z,66.62
2016-03-21T06:54:11.555Z,66.11
2016-03-21T06:55:11.511Z,66.53
2016-03-21T06:56:11.497Z,66.59
2016-03-21T06:57:11.578Z,66.68
2016-03-21T06:58:11.847Z,66.39
2016-03-21T06:59:11.443Z,66.39
2016-03-21T07:00:11.383Z,67
2016-03-21T07:01:11.370Z,66.78
2016-03-21T07:02:11.326Z,66.49
2016-03-21T07:03:11.345Z,66.39
2016-03-21T07:04:11.534Z,66.97
2016-03-21T07:05:11.241Z,66.33
2016-03-21T07:06:11.228Z,66.24
2016-03-21T07:07:11.190Z,66.05
2016-03-21T07:08:11.193Z,66.14
2016-03-21T07:09:11.150Z,65.67
2016-03-21T07:10:11.121Z,65.86
2016-03-21T07:11:11.217Z,66.14
2016-03-21T07:12:11.095Z,65.86
2016-03-21T07:13:11.051Z,66.05
2016-03-21T07:14:11.022Z,66.14
2016-03-21T07:15:11.009Z,66.14
2016-03-21T07:16:10.964Z,66.05
2016-03-21T07:17:10.953Z,66.14
2016-03-21T07:18:11.017Z,66.05
2016-03-21T07:19:10.911Z,65.86
2016-03-21T07:20:10.851Z,65.67
2016-03-21T07:21:10.822Z,65.86
2016-03-21T07:22:10.841Z,65.67
2016-03-21T07:23:10.796Z,65.48
2016-03-21T07:24:10.800Z,65.48
2016-03-21T07:25:10.739Z,65.67
2016-03-21T07:26:10.710Z,65.29
2016-03-21T07:27:10.698Z,65.29
2016-03-21T07:28:10.841Z,65.48
2016-03-21T07:29:10.625Z,65.38
2016-03-21T07:30:10.659Z,65.38
2016-03-21T07:31:10.585Z,65.58
2016-03-21T07:32:10.774Z,65.48
2016-03-21T07:33:10.542Z,65.67
2016-03-21T07:35:10.501Z,65.48
2016-03-21T07:36:10.472Z,65.67
2016-03-21T07:37:10.428Z,65.48
2016-03-21T07:38:10.446Z,65.77
2016-03-21T07:39:10.402Z,65.77
2016-03-21T07:40:10.389Z,65.67
2016-03-21T07:41:10.423Z,65.77
2016-03-21T07:42:10.301Z,65.77
2016-03-21T07:43:10.303Z,65.95
2016-03-21T07:44:10.275Z,64.81
2016-03-21T07:45:10.239Z,64.62
2016-03-21T07:46:10.196Z,64.53
2016-03-21T07:47:10.169Z,64.18
2016-03-21T07:48:10.112Z,64.47
2016-03-21T07:49:10.240Z,64.28
2016-03-21T07:50:10.032Z,64.47
2016-03-21T07:51:10.014Z,64.65
2016-03-21T07:52:09.979Z,65.03
2016-03-21T07:53:09.994Z,64.75
2016-03-21T07:54:09.913Z,64.94
2016-03-21T07:55:09.896Z,65.19
2016-03-21T07:56:10.600Z,65.48
2016-03-21T07:57:09.914Z,65.67
2016-03-21T07:58:09.820Z,65.86
2016-03-21T07:59:09.806Z,65.77
2016-03-21T08:00:09.776Z,65.95
2016-03-21T08:01:09.763Z,65.67
2016-03-21T08:02:09.765Z,65.67
2016-03-21T08:03:09.735Z,65.1
2016-03-21T08:04:09.644Z,64.9
2016-03-21T08:05:09.630Z,64.72
2016-03-21T08:06:09.695Z,65
2016-03-21T08:07:09.574Z,64.53
2016-03-21T08:08:09.591Z,64.62
2016-03-21T08:09:09.532Z,64.56
2016-03-21T08:10:09.581Z,64.18
2016-03-21T08:11:09.521Z,64.56
2016-03-21T08:12:09.618Z,64.28
2016-03-21T08:13:09.479Z,64.18
2016-03-21T08:14:09.421Z,64.18
2016-03-21T08:15:09.360Z,64.28
2016-03-21T08:16:09.393Z,64.37
2016-03-21T08:17:09.350Z,63.89
2016-03-21T08:18:12.353Z,64.37
2016-03-21T08:19:09.293Z,64.47
2016-03-21T08:20:09.420Z,64.47
2016-03-21T08:21:09.251Z,64.28
2016-03-21T08:22:09.270Z,64.56
2016-03-21T08:23:09.178Z,64.65
2016-03-21T08:24:09.134Z,65.03
2016-03-21T08:25:09.137Z,64.84
2016-03-21T08:26:09.093Z,64.81
2016-03-21T08:27:08.236Z,65.1
2016-03-21T08:28:09.036Z,65.19
2016-03-21T08:29:09.022Z,64.81
2016-03-21T08:30:09.041Z,64.81
2016-03-21T08:31:09.168Z,65
2016-03-21T08:32:08.937Z,65.77
2016-03-21T08:33:08.924Z,65.86
2016-03-21T08:34:08.896Z,65.86
2016-03-21T08:35:08.930Z,65.48
2016-03-21T08:36:08.917Z,64.9
2016-03-21T08:37:08.825Z,64.9
2016-03-21T08:38:08.796Z,64.9
2016-03-21T08:39:08.769Z,64.81
2016-03-21T08:40:08.755Z,64.81
2016-03-21T08:41:08.790Z,65
2016-03-21T08:42:08.698Z,65.1
2016-03-21T08:43:08.685Z,64.75
2016-03-21T08:44:08.673Z,64.75
2016-03-21T08:45:08.628Z,65.03
2016-03-21T08:46:08.616Z,65.13
2016-03-21T08:47:08.556Z,64.37
2016-03-21T08:48:08.543Z,63.99
2016-03-21T08:49:08.529Z,63.89
2016-03-21T08:50:08.548Z,63.51
2016-03-21T08:51:08.598Z,63.99
2016-03-21T08:52:08.475Z,63.89
2016-03-21T08:53:08.462Z,63.42
2016-03-21T08:54:08.387Z,63.7
2016-03-21T08:55:08.420Z,63.51
2016-03-21T08:56:08.377Z,63.99
2016-03-21T08:57:08.364Z,64.37
2016-03-21T08:58:08.304Z,64.28
2016-03-21T08:59:08.525Z,64.18
2016-03-21T09:00:08.247Z,64.18
2016-03-21T09:01:08.625Z,63.6
2016-03-21T09:02:08.205Z,63.42
2016-03-21T09:03:08.192Z,63.42
2016-03-21T09:04:08.694Z,62.97
2016-03-21T09:05:08.213Z,63.35
2016-03-21T09:06:08.138Z,63.26
2016-03-21T09:07:08.078Z,63.26
2016-03-21T09:08:08.081Z,63.07
2016-03-21T09:09:08.003Z,62.59
2016-03-21T09:10:08.036Z,62.59
2016-03-21T09:11:08.246Z,62.78
2016-03-21T09:12:08.419Z,63.07
2016-03-21T09:13:07.966Z,62.97
2016-03-21T09:14:07.921Z,62.88
2016-03-21T09:15:07.870Z,62.49
2016-03-21T09:16:08.059Z,62.4
2016-03-21T09:17:08.140Z,62.68
2016-03-21T09:18:07.783Z,62.05
2016-03-21T09:19:10.820Z,62.24
2016-03-21T09:20:07.867Z,62.24
2016-03-21T09:21:08.213Z,62.05
2016-03-21T09:22:07.919Z,62.34
2016-03-21T09:23:07.813Z,62.24
2016-03-21T09:24:08.127Z,62.05
2016-03-21T09:25:07.881Z,61.86
2016-03-21T09:26:07.774Z,61.67
2016-03-21T09:27:07.605Z,61.29
2016-03-21T09:28:07.732Z,61.57
2016-03-21T09:29:07.610Z,61.57
2016-03-21T09:30:07.613Z,61.67
2016-03-21T09:31:07.490Z,61.86
2016-03-21T09:32:07.446Z,61.57
2016-03-21T09:33:07.793Z,61.38
2016-03-21T09:34:10.439Z,61
2016-03-21T09:35:07.814Z,61.19
2016-03-21T09:36:07.379Z,61.19
2016-03-21T09:37:07.319Z,61.19
2016-03-21T09:38:07.306Z,61.51
2016-03-21T09:39:07.278Z,61
2016-03-21T09:40:07.827Z,60.52
2016-03-21T09:41:07.408Z,61.22
2016-03-21T09:42:07.473Z,61.22
2016-03-21T09:43:07.350Z,60.94
2016-03-21T09:44:07.244Z,60.91
2016-03-21T09:45:07.106Z,60.72
2016-03-21T09:46:07.375Z,61.32
2016-03-21T09:47:07.081Z,60.05
2016-03-21T09:48:07.223Z,60.55
2016-03-21T09:49:07.258Z,60.46
2016-03-21T09:50:07.167Z,60.24
2016-03-21T09:51:06.981Z,60.27
2016-03-21T09:52:06.984Z,60.17
2016-03-21T09:53:07.050Z,60.27
2016-03-21T09:54:07.162Z,60.27
2016-03-21T09:55:07.164Z,60.27
2016-03-21T09:56:06.870Z,60.08
2016-03-21T09:57:07.044Z,59.6
2016-03-21T09:58:07.125Z,59.79
2016-03-21T09:59:06.784Z,59.12
2016-03-21T10:00:06.772Z,59.51
2016-03-21T10:01:06.837Z,59.51
2016-03-21T10:02:07.042Z,59.31
2016-03-21T10:03:06.795Z,59.41
2016-03-21T10:04:06.720Z,59.31
2016-03-21T10:05:07.066Z,59.31
2016-03-21T10:06:06.662Z,59.6
2016-03-21T10:07:06.636Z,59.31
2016-03-21T10:08:06.747Z,59.31
2016-03-21T10:09:06.562Z,58.75
2016-03-21T10:10:06.659Z,59.16
2016-03-21T10:11:06.865Z,58.87
2016-03-21T10:12:06.852Z,58.48
2016-03-21T10:13:06.635Z,58.2
2016-03-21T10:14:20.234Z,58.29
2016-03-21T10:15:06.656Z,58.48
2016-03-21T10:16:06.612Z,57.92
2016-03-21T10:17:06.865Z,58.01
2016-03-21T10:18:06.602Z,57.92
2016-03-21T10:19:06.495Z,58.14
2016-03-21T10:20:06.810Z,57.53
2016-03-21T10:21:06.517Z,56.8
2016-03-21T10:22:07.113Z,56.51
2016-03-21T10:23:06.272Z,56.13
2016-03-21T10:24:06.900Z,56.23
2016-03-21T10:25:06.699Z,56.04
2016-03-21T10:26:06.156Z,55.94
2016-03-21T10:27:06.189Z,56.04
2016-03-21T10:28:06.145Z,55.75
2016-03-21T10:29:06.084Z,55.65
2016-03-21T10:30:06.056Z,55.27
2016-03-21T10:31:06.027Z,55.18
2016-03-21T10:32:06.061Z,55.18
2016-03-21T10:33:05.986Z,54.99
2016-03-21T10:34:06.004Z,55.08
2016-03-21T10:35:06.820Z,55.65
2016-03-21T10:36:05.947Z,54.99
2016-03-21T10:37:05.872Z,55.36
2016-03-21T10:38:05.875Z,55.75
2016-03-21T10:39:05.924Z,56.01
2016-03-21T10:40:05.849Z,55.91
2016-03-21T10:41:05.805Z,55.91
2016-03-21T10:42:05.777Z,56.67
2016-03-21T10:43:05.779Z,56.74
2016-03-21T10:44:06.296Z,57.41
2016-03-21T10:45:05.752Z,57.22
2016-03-21T10:46:05.802Z,57.6
2016-03-21T10:47:05.540Z,57.31
2016-03-21T10:48:05.824Z,57.31
2016-03-21T10:49:05.873Z,58.07
2016-03-21T10:50:05.610Z,57.7
2016-03-21T10:51:05.612Z,58.14
2016-03-21T10:52:05.554Z,57.57
2016-03-21T10:53:05.571Z,58.24
2016-03-21T10:54:05.511Z,58.24
2016-03-21T10:55:05.514Z,58.14
2016-03-21T10:56:05.486Z,58.81
2016-03-21T10:57:05.488Z,58.91
2016-03-21T10:58:05.413Z,58.52
2016-03-21T10:59:05.369Z,58.14
2016-03-21T11:00:05.543Z,58.04
2016-03-21T11:01:05.374Z,57.86
2016-03-21T11:02:05.283Z,57.67
2016-03-21T11:03:05.255Z,57.7
2016-03-21T11:04:05.272Z,57.7
2016-03-21T11:05:05.260Z,57.31
2016-03-21T11:06:05.263Z,57.12
2016-03-21T11:07:18.963Z,57.03
2016-03-21T11:08:05.166Z,57.03
2016-03-21T11:09:05.106Z,57.41
2016-03-21T11:10:05.109Z,57.12
2016-03-21T11:11:05.066Z,56.84
2016-03-21T11:12:05.084Z,56.84
2016-03-21T11:13:05.258Z,56.87
2016-03-21T11:14:05.058Z,56.48
2016-03-21T11:15:04.982Z,56.29
2016-03-21T11:16:04.969Z,56.01
2016-03-21T11:17:04.941Z,56.01
2016-03-21T11:18:04.943Z,56.01
2016-03-21T11:19:04.961Z,56.29
2016-03-21T11:20:04.965Z,55.91
2016-03-21T11:21:04.873Z,55.53
2016-03-21T11:22:04.829Z,55.91
2016-03-21T11:23:04.863Z,55.24
2016-03-21T11:24:04.756Z,55.34
2016-03-21T11:25:04.743Z,55.43
2016-03-21T11:26:04.746Z,55.34
2016-03-21T11:27:03.859Z,55.15
2016-03-21T11:28:04.845Z,54.96
2016-03-21T11:29:04.972Z,55.53
2016-03-21T11:30:03.773Z,55.62
2016-03-21T11:31:04.654Z,55.15
2016-03-21T11:32:05.745Z,54.77
2016-03-21T11:33:04.920Z,54.77
2016-03-21T11:34:04.574Z,54.7
2016-03-21T11:35:04.634Z,54.79
2016-03-21T11:36:04.589Z,54.57
2016-03-21T11:37:04.968Z,54.79
2016-03-21T11:38:04.782Z,54.79
2016-03-21T11:39:04.441Z,54.41
2016-03-21T11:40:04.381Z,54.13
2016-03-21T11:41:05.087Z,53.74
2016-03-21T11:42:04.698Z,53.93
2016-03-21T11:43:05.046Z,53.2
2016-03-21T11:44:04.329Z,53.36
2016-03-21T11:45:04.520Z,53.58
2016-03-21T11:46:04.272Z,53
2016-03-21T11:47:04.197Z,52.62
2016-03-21T11:48:04.856Z,52.34
2016-03-21T11:49:04.202Z,52.34
2016-03-21T11:50:04.174Z,52.34
2016-03-21T11:51:04.145Z,52.34
2016-03-21T11:52:04.069Z,52.24
2016-03-21T11:53:04.057Z,52.24
2016-03-21T11:54:04.138Z,52.05
2016-03-21T11:55:04.108Z,51.86
2016-03-21T11:56:03.986Z,51.95
2016-03-21T11:57:04.021Z,51.98
2016-03-21T11:58:04.055Z,51.89
2016-03-21T11:59:03.948Z,51.89
2016-03-21T12:00:04.388Z,51.7
2016-03-21T12:01:03.875Z,51.03
2016-03-21T12:02:03.877Z,50.84
2016-03-21T12:03:03.866Z,50.35
2016-03-21T12:04:03.899Z,49.8
2016-03-21T12:05:03.807Z,49.33
2016-03-21T12:06:03.857Z,49.62
2016-03-21T12:07:03.739Z,49.8
2016-03-21T12:08:03.944Z,50.09
2016-03-21T12:09:03.745Z,49.71
2016-03-21T12:10:03.700Z,49.69
2016-03-21T12:11:03.656Z,49.88
2016-03-21T12:12:03.768Z,49.78
2016-03-21T12:13:03.739Z,49.78
2016-03-21T12:14:03.789Z,49.98
2016-03-21T12:15:03.666Z,50.43
2016-03-21T12:16:03.591Z,50.33
2016-03-21T12:17:03.516Z,50.07
2016-03-21T12:18:03.582Z,49.69
2016-03-21T12:19:03.569Z,49.69
2016-03-21T12:20:03.540Z,49.98
2016-03-21T12:21:17.639Z,50.26
2016-03-21T12:22:03.702Z,50.55
2016-03-21T12:23:03.532Z,50.74
2016-03-21T12:24:03.659Z,51.03
2016-03-21T12:25:03.803Z,51.86
2016-03-21T12:26:03.774Z,51.76
2016-03-21T12:27:03.526Z,52.43
2016-03-21T12:28:03.421Z,53.29
2016-03-21T12:29:17.020Z,53.36
2016-03-21T12:30:03.614Z,53.36
2016-03-21T12:31:03.304Z,53.27
2016-03-21T12:32:03.212Z,52.59
2016-03-21T12:33:06.230Z,52.5
2016-03-21T12:34:16.955Z,51.86
2016-03-21T12:35:03.314Z,51.48
2016-03-21T12:36:03.458Z,51
2016-03-21T12:37:03.242Z,50.62
2016-03-21T12:38:02.214Z,50.43
2016-03-21T12:39:03.216Z,50.62
2016-03-21T12:40:03.687Z,50.43
2016-03-21T12:41:03.018Z,49.78
2016-03-21T12:42:03.567Z,49.69
2016-03-21T12:43:02.977Z,49.69
2016-03-21T12:44:03.276Z,48.93
2016-03-21T12:45:02.904Z,48.54
2016-03-21T12:46:02.828Z,48.25
2016-03-21T12:47:02.815Z,47.78
2016-03-21T12:48:03.005Z,46.66
2016-03-21T12:49:02.008Z,46.94
2016-03-21T12:50:02.807Z,47.03
2016-03-21T12:51:02.982Z,46.94
2016-03-21T12:52:02.765Z,47.13
2016-03-21T12:53:01.893Z,47.42
2016-03-21T12:54:02.834Z,47.32
2016-03-21T12:55:03.837Z,47.89
2016-03-21T12:56:02.934Z,48.38
2016-03-21T12:57:02.701Z,48.54